Time;durP1;ratioP1;P1;durP2;ratioP2;P2;SDS_P1;SDS_P2;PMS_P1;PMS_P2;Temp;Humidity;BMP_temperature;BMP_pressure;BME280_temperature;BME280_humidity;BME280_pressure;Samples;Min_cycle;Max_cycle;Signal;HPM_P1;HPM_P2
2020/12/04 00:01:24;;;;;;;40.28;16.83;;;;;;;;;;5053021;28;20052;-80
2020/12/04 00:03:50;;;;;;;44.83;17.52;;;;;;;;;;5059700;28;20048;-80
2020/12/04 00:06:17;;;;;;;39.03;15.95;;;;;;;;;;5075861;28;20318;-80
2020/12/04 00:08:43;;;;;;;42.30;15.98;;;;;;;;;;5057777;28;20048;-79
2020/12/04 00:11:09;;;;;;;36.15;15.52;;;;;;;;;;5058756;28;20044;-79
2020/12/04 00:13:37;;;;;;;41.47;16.75;;;;;;;;;;5041075;28;20467;-79
2020/12/04 00:16:04;;;;;;;39.83;16.20;;;;;;;;;;5040917;28;20379;-79
2020/12/04 00:18:30;;;;;;;36.38;15.15;;;;;;;;;;5042038;28;20299;-78
2020/12/04 00:20:57;;;;;;;36.15;14.88;;;;;;;;;;5056664;28;20052;-81
2020/12/04 00:23:23;;;;;;;35.47;15.38;;;;;;;;;;5056575;28;20059;-79
2020/12/04 00:25:49;;;;;;;34.70;13.98;;;;;;;;;;5057644;28;20105;-80
2020/12/04 00:28:17;;;;;;;32.88;13.30;;;;;;;;;;5057737;28;20059;-80
2020/12/04 00:30:47;;;;;;;34.22;14.20;;;;;;;;;;5056963;28;20048;-80
2020/12/04 00:33:13;;;;;;;34.83;14.00;;;;;;;;;;5058137;28;20052;-79
2020/12/04 00:35:39;;;;;;;34.28;14.52;;;;;;;;;;5076527;28;20049;-77
2020/12/04 00:38:05;;;;;;;31.27;13.35;;;;;;;;;;5074961;28;20102;-78
2020/12/04 00:40:39;;;;;;;33.10;13.23;;;;;;;;;;5059935;28;20040;-79
2020/12/04 00:43:06;;;;;;;33.38;13.32;;;;;;;;;;5041125;28;20051;-79
2020/12/04 00:45:32;;;;;;;30.38;12.95;;;;;;;;;;5043317;28;20072;-79
2020/12/04 00:48:00;;;;;;;31.70;13.30;;;;;;;;;;5058517;28;20075;-79
2020/12/04 00:50:28;;;;;;;34.72;13.60;;;;;;;;;;5077850;28;20048;-78
2020/12/04 00:52:55;;;;;;;35.97;14.05;;;;;;;;;;5037817;28;20040;-77
2020/12/04 00:55:21;;;;;;;31.35;13.52;;;;;;;;;;5054721;28;20514;-79
2020/12/04 00:57:48;;;;;;;30.98;12.82;;;;;;;;;;5073306;28;20037;-78
2020/12/04 01:00:15;;;;;;;31.88;13.27;;;;;;;;;;5072588;28;20086;-78
2020/12/04 01:02:41;;;;;;;35.17;14.80;;;;;;;;;;5055683;28;20040;-80
2020/12/04 01:05:08;;;;;;;35.08;13.32;;;;;;;;;;5057945;28;20049;-79
2020/12/04 01:07:34;;;;;;;33.00;12.95;;;;;;;;;;5056151;28;20051;-80
2020/12/04 01:10:01;;;;;;;30.67;12.52;;;;;;;;;;5074965;28;20071;-79
2020/12/04 01:12:27;;;;;;;32.78;13.50;;;;;;;;;;5072924;28;20067;-80
2020/12/04 01:14:56;;;;;;;30.55;13.38;;;;;;;;;;5055045;28;20044;-79
2020/12/04 01:17:23;;;;;;;30.63;12.38;;;;;;;;;;5054955;28;20106;-79
2020/12/04 01:19:49;;;;;;;28.10;12.02;;;;;;;;;;5023707;28;20064;-79
2020/12/04 01:22:16;;;;;;;29.30;12.48;;;;;;;;;;5054826;28;20066;-77
2020/12/04 01:24:42;;;;;;;30.85;12.77;;;;;;;;;;5073081;28;20512;-80
2020/12/04 01:27:08;;;;;;;30.00;12.35;;;;;;;;;;5056978;28;20501;-80
2020/12/04 01:29:36;;;;;;;28.08;11.85;;;;;;;;;;5056068;28;20450;-79
2020/12/04 01:32:02;;;;;;;24.65;11.00;;;;;;;;;;5057311;28;20036;-79
2020/12/04 01:34:29;;;;;;;28.48;11.63;;;;;;;;;;5039590;28;20068;-79
2020/12/04 01:36:55;;;;;;;28.42;11.93;;;;;;;;;;5025360;28;20044;-80
2020/12/04 01:39:22;;;;;;;29.20;11.82;;;;;;;;;;5058655;28;20044;-79
2020/12/04 01:41:49;;;;;;;25.48;11.77;;;;;;;;;;5058556;28;20044;-79
2020/12/04 01:44:15;;;;;;;31.25;12.27;;;;;;;;;;5057440;28;20055;-79
2020/12/04 01:46:41;;;;;;;29.00;12.27;;;;;;;;;;5052692;28;20495;-79
2020/12/04 01:49:08;;;;;;;27.77;11.52;;;;;;;;;;5073083;28;20082;-79
2020/12/04 01:51:35;;;;;;;28.25;11.65;;;;;;;;;;5064829;23;20047;-79
2020/12/04 01:54:14;;;;;;;31.27;12.32;;;;;;;;;;4982066;28;20042;-81
2020/12/04 01:56:41;;;;;;;25.80;10.77;;;;;;;;;;4982410;28;20082;-80
2020/12/04 01:59:19;;;;;;;29.85;11.48;;;;;;;;;;4981621;28;20101;-81
2020/12/04 02:02:04;;;;;;;29.33;12.35;;;;;;;;;;4981563;28;20059;-79
2020/12/04 02:04:52;;;;;;;30.45;12.48;;;;;;;;;;4981270;28;20054;-81
2020/12/04 02:07:39;;;;;;;30.30;12.93;;;;;;;;;;4984120;28;20066;-82
2020/12/04 02:10:32;;;;;;;24.48;9.25;;;;;;;;;;4997205;28;20039;-81
2020/12/04 02:13:02;;;;;;;28.88;12.52;;;;;;;;;;4980498;28;20047;-81
2020/12/04 02:15:36;;;;;;;32.78;13.30;;;;;;;;;;4996850;28;20050;-82
2020/12/04 02:18:17;;;;;;;32.53;13.55;;;;;;;;;;4981612;28;20043;-80
2020/12/04 02:20:58;;;;;;;34.05;13.13;;;;;;;;;;4997177;28;20050;-81
2020/12/04 02:23:55;;;;;;;33.90;13.77;;;;;;;;;;4984177;28;20043;-81
2020/12/04 02:26:44;;;;;;;33.00;13.75;;;;;;;;;;4996803;28;20071;-82
2020/12/04 02:29:21;;;;;;;34.83;14.43;;;;;;;;;;4981703;28;20046;-81
2020/12/04 02:32:08;;;;;;;37.88;14.90;;;;;;;;;;4981152;28;20062;-82
2020/12/04 02:34:42;;;;;;;38.22;14.80;;;;;;;;;;4982931;28;20042;-80
2020/12/04 02:37:31;;;;;;;39.05;15.23;;;;;;;;;;4967377;28;20043;-82
2020/12/04 02:40:30;;;;;;;39.58;15.82;;;;;;;;;;4987682;28;20043;-81
2020/12/04 02:43:15;;;;;;;39.50;15.77;;;;;;;;;;4983507;28;20047;-81
2020/12/04 02:45:42;;;;;;;42.20;16.20;;;;;;;;;;4996759;28;20101;-80
2020/12/04 02:48:24;;;;;;;40.33;16.77;;;;;;;;;;4982096;28;20063;-80
2020/12/04 02:51:05;;;;;;;40.83;15.63;;;;;;;;;;4995349;28;20517;-79
2020/12/04 02:53:55;;;;;;;38.88;16.13;;;;;;;;;;4981403;28;20046;-79
2020/12/04 02:56:35;;;;;;;40.25;16.55;;;;;;;;;;4999063;28;20039;-80
2020/12/04 02:59:30;;;;;;;43.25;15.95;;;;;;;;;;4968885;28;20035;-80
2020/12/04 03:02:09;;;;;;;45.47;17.15;;;;;;;;;;4961453;28;20070;-81
2020/12/04 03:04:54;;;;;;;40.45;16.13;;;;;;;;;;4968023;28;20077;-80
2020/12/04 03:07:39;;;;;;;41.40;16.38;;;;;;;;;;4966906;28;20070;-80
2020/12/04 03:10:16;;;;;;;45.55;17.88;;;;;;;;;;4966012;28;20043;-80
2020/12/04 03:13:06;;;;;;;39.55;16.42;;;;;;;;;;4983232;28;20047;-80
2020/12/04 03:15:42;;;;;;;44.10;17.48;;;;;;;;;;4979313;28;20045;-79
2020/12/04 03:18:14;;;;;;;45.42;17.10;;;;;;;;;;4994809;28;20114;-81
2020/12/04 03:20:47;;;;;;;44.88;17.08;;;;;;;;;;4980389;28;20043;-80
2020/12/04 03:23:33;;;;;;;41.60;16.35;;;;;;;;;;4981093;28;20043;-80
2020/12/04 03:26:11;;;;;;;46.03;18.35;;;;;;;;;;4979720;28;20097;-80
2020/12/04 03:28:41;;;;;;;45.78;17.40;;;;;;;;;;4980686;28;20154;-80
2020/12/04 03:31:08;;;;;;;43.28;17.42;;;;;;;;;;4980523;28;20485;-81
2020/12/04 03:33:41;;;;;;;46.30;17.10;;;;;;;;;;4981042;28;20070;-79
2020/12/04 03:36:15;;;;;;;40.80;16.80;;;;;;;;;;4997115;28;20514;-80
2020/12/04 03:38:50;;;;;;;41.95;16.48;;;;;;;;;;5000094;28;20043;-80
2020/12/04 03:41:32;;;;;;;45.97;17.20;;;;;;;;;;4985816;28;20093;-79
2020/12/04 03:44:07;;;;;;;40.03;15.73;;;;;;;;;;4983688;28;20506;-80
2020/12/04 03:46:44;;;;;;;41.13;16.88;;;;;;;;;;4979994;28;20078;-80
2020/12/04 03:49:15;;;;;;;42.25;17.08;;;;;;;;;;4985974;28;20042;-78
2020/12/04 03:52:20;;;;;;;40.30;17.10;;;;;;;;;;4972863;28;20039;-80
2020/12/04 03:54:51;;;;;;;41.60;17.02;;;;;;;;;;4986289;28;20099;-81
2020/12/04 03:57:21;;;;;;;42.67;15.82;;;;;;;;;;4984326;28;20607;-80
2020/12/04 03:59:59;;;;;;;40.63;15.95;;;;;;;;;;4978237;28;20518;-79
2020/12/04 04:02:39;;;;;;;38.53;16.05;;;;;;;;;;4995500;28;20053;-78
2020/12/04 04:05:22;;;;;;;42.17;16.65;;;;;;;;;;4986286;28;20046;-80
2020/12/04 04:08:07;;;;;;;41.53;16.25;;;;;;;;;;4985481;28;20149;-80
2020/12/04 04:10:48;;;;;;;37.13;15.18;;;;;;;;;;4978926;28;20047;-79
2020/12/04 04:13:26;;;;;;;36.85;15.20;;;;;;;;;;4976325;28;20105;-80
2020/12/04 04:16:01;;;;;;;36.83;15.57;;;;;;;;;;4993912;28;20074;-79
2020/12/04 04:18:33;;;;;;;40.05;15.98;;;;;;;;;;4980832;28;20047;-80
2020/12/04 04:21:09;;;;;;;36.55;15.55;;;;;;;;;;4997305;28;20043;-79
2020/12/04 04:23:38;;;;;;;40.73;16.43;;;;;;;;;;4993285;28;20047;-79
2020/12/04 04:26:10;;;;;;;37.05;15.38;;;;;;;;;;4979362;28;20055;-79
2020/12/04 04:28:47;;;;;;;38.92;15.70;;;;;;;;;;4979028;28;20057;-80
2020/12/04 04:31:17;;;;;;;37.10;14.70;;;;;;;;;;4978055;28;20047;-80
2020/12/04 04:33:55;;;;;;;38.22;15.90;;;;;;;;;;4965737;28;20047;-80
2020/12/04 04:36:29;;;;;;;38.78;15.60;;;;;;;;;;4978715;28;20047;-81
2020/12/04 04:39:05;;;;;;;35.75;15.85;;;;;;;;;;4980972;28;20069;-80
2020/12/04 04:41:36;;;;;;;35.22;14.68;;;;;;;;;;4983021;28;20050;-79
2020/12/04 04:44:11;;;;;;;39.33;15.02;;;;;;;;;;4982797;28;20466;-80
2020/12/04 04:46:46;;;;;;;34.05;14.00;;;;;;;;;;5000829;28;20042;-82
2020/12/04 04:49:38;;;;;;;35.70;15.18;;;;;;;;;;5003293;28;20046;-79
2020/12/04 04:52:07;;;;;;;37.03;14.80;;;;;;;;;;4988301;28;20046;-82
2020/12/04 04:54:44;;;;;;;38.35;15.02;;;;;;;;;;5007095;28;20621;-81
2020/12/04 04:57:27;;;;;;;37.45;15.35;;;;;;;;;;5007759;28;20066;-85
2020/12/04 05:00:04;;;;;;;32.38;14.10;;;;;;;;;;5006208;28;20054;-81
2020/12/04 05:02:37;;;;;;;34.88;15.13;;;;;;;;;;4992214;28;20046;-80
2020/12/04 05:05:15;;;;;;;34.38;14.00;;;;;;;;;;4992771;28;20042;-81
2020/12/04 05:07:48;;;;;;;32.28;13.65;;;;;;;;;;4977676;28;20129;-80
2020/12/04 05:10:20;;;;;;;31.05;14.07;;;;;;;;;;4975611;28;20089;-81
2020/12/04 05:13:01;;;;;;;34.63;13.82;;;;;;;;;;4960400;28;20051;-80
2020/12/04 05:15:36;;;;;;;33.33;13.88;;;;;;;;;;4976114;28;20039;-81
2020/12/04 05:18:06;;;;;;;31.10;13.10;;;;;;;;;;4976087;28;20098;-80
2020/12/04 05:20:45;;;;;;;33.40;14.38;;;;;;;;;;4974913;28;20058;-81
2020/12/04 05:23:28;;;;;;;33.15;14.40;;;;;;;;;;4973316;28;20105;-81
2020/12/04 05:25:55;;;;;;;30.17;12.77;;;;;;;;;;4975459;28;20043;-83
2020/12/04 05:28:23;;;;;;;34.35;13.38;;;;;;;;;;4977470;28;20047;-80
2020/12/04 05:31:09;;;;;;;31.70;13.77;;;;;;;;;;4980485;28;20052;-80
2020/12/04 05:33:46;;;;;;;30.95;13.25;;;;;;;;;;4980152;28;20061;-79
2020/12/04 05:36:26;;;;;;;29.88;12.75;;;;;;;;;;4977481;28;20109;-79
2020/12/04 05:38:57;;;;;;;30.67;12.90;;;;;;;;;;4977036;28;20050;-81
2020/12/04 05:41:30;;;;;;;27.08;12.50;;;;;;;;;;4976810;28;20038;-80
2020/12/04 05:43:59;;;;;;;33.35;13.70;;;;;;;;;;4976726;28;20050;-79
2020/12/04 05:46:40;;;;;;;31.08;13.90;;;;;;;;;;4977636;28;20125;-79
2020/12/04 05:49:14;;;;;;;32.95;13.10;;;;;;;;;;4977916;28;20047;-80
2020/12/04 05:51:51;;;;;;;29.40;12.63;;;;;;;;;;4995059;28;20061;-81
2020/12/04 05:54:33;;;;;;;32.42;14.10;;;;;;;;;;4976323;28;20414;-82
2020/12/04 05:57:16;;;;;;;33.30;12.30;;;;;;;;;;4978145;28;20477;-79
2020/12/04 06:00:03;;;;;;;30.10;12.38;;;;;;;;;;4964289;28;20042;-79
2020/12/04 06:02:40;;;;;;;31.50;13.35;;;;;;;;;;4955507;29;20087;-79
2020/12/04 06:05:23;;;;;;;28.05;12.45;;;;;;;;;;4957768;29;20109;-83
2020/12/04 06:08:11;;;;;;;29.13;12.60;;;;;;;;;;4952666;28;20074;-80
2020/12/04 06:10:56;;;;;;;32.07;13.00;;;;;;;;;;4959598;28;20061;-80
2020/12/04 06:13:46;;;;;;;28.90;12.50;;;;;;;;;;4962375;28;20057;-81
2020/12/04 06:16:43;;;;;;;26.27;11.77;;;;;;;;;;4948514;29;20056;-80
2020/12/04 06:19:39;;;;;;;;;;;;;;;;;;4950562;29;20059;-79
2020/12/04 06:22:19;;;;;;;29.92;12.32;;;;;;;;;;4970734;28;19922;-79
2020/12/04 06:25:09;;;;;;;29.35;12.35;;;;;;;;;;4979612;28;20054;-78
2020/12/04 06:28:22;;;;;;;31.15;12.73;;;;;;;;;;4969855;28;20411;-77
2020/12/04 06:31:10;;;;;;;27.98;12.02;;;;;;;;;;4980692;28;20074;-82
2020/12/04 06:33:56;;;;;;;29.75;12.75;;;;;;;;;;4972620;28;20113;-80
2020/12/04 06:36:38;;;;;;;28.75;12.05;;;;;;;;;;4983444;28;20225;-79
2020/12/04 06:39:39;;;;;;;29.42;11.77;;;;;;;;;;4969410;28;20091;-79
2020/12/04 06:42:37;;;;;;;28.98;12.20;;;;;;;;;;4991013;28;20043;-82
2020/12/04 06:45:30;;;;;;;29.13;11.45;;;;;;;;;;4982455;28;20035;-81
2020/12/04 06:51:33;;;;;;;30.17;12.20;;;;;;;;;;4980703;28;20049;-80
2020/12/04 06:54:20;;;;;;;23.30;10.80;;;;;;;;;;4982149;28;20083;-79
2020/12/04 06:57:06;;;;;;;26.48;11.32;;;;;;;;;;4988102;28;20106;-80
2020/12/04 07:10:52;;;;;;;34.95;14.60;;;;;;;;;;4949024;23;20350;-80
2020/12/04 07:13:19;;;;;;;31.25;12.77;;;;;;;;;;4976721;28;20050;-79
2020/12/04 07:15:45;;;;;;;33.80;13.63;;;;;;;;;;4973360;28;20048;-79
2020/12/04 07:18:11;;;;;;;37.38;15.07;;;;;;;;;;4991178;28;20062;-79
2020/12/04 07:20:38;;;;;;;29.05;11.73;;;;;;;;;;4997175;28;20508;-79
2020/12/04 07:23:05;;;;;;;27.35;11.93;;;;;;;;;;4980910;28;20054;-80
2020/12/04 07:28:16;;;;;;;29.42;12.75;;;;;;;;;;5023011;22;20050;-80
2020/12/04 07:34:15;;;;;;;32.35;12.65;;;;;;;;;;4962303;28;20046;-81
2020/12/04 07:37:01;;;;;;;;;;;;;;;;;;;;;
2020/12/04 07:43:15;;;;;;;29.17;12.25;;;;;;;;;;4944719;29;20054;-79
2020/12/04 07:46:38;;;;;;;28.13;11.75;;;;;;;;;;4942464;29;20102;-79
2020/12/04 07:49:22;;;;;;;23.95;11.05;;;;;;;;;;4941360;29;20050;-80
2020/12/04 07:52:09;;;;;;;32.88;13.32;;;;;;;;;;4956151;23;20059;-78
2020/12/04 07:54:36;;;;;;;35.03;14.52;;;;;;;;;;4971323;28;20126;-79
2020/12/04 07:57:03;;;;;;;27.50;11.85;;;;;;;;;;4953827;28;20053;-78
2020/12/04 07:59:31;;;;;;;29.77;12.23;;;;;;;;;;4953866;28;20038;-80
2020/12/04 08:02:02;;;;;;;27.00;11.80;;;;;;;;;;4954481;28;20102;-80
2020/12/04 08:04:29;;;;;;;28.65;11.98;;;;;;;;;;4972053;28;20047;-80
2020/12/04 08:07:05;;;;;;;26.63;12.13;;;;;;;;;;4955545;28;20066;-80
2020/12/04 08:09:33;;;;;;;28.30;12.50;;;;;;;;;;4972460;28;20046;-78
2020/12/04 08:12:02;;;;;;;34.83;14.60;;;;;;;;;;4965419;28;20539;-79
2020/12/04 08:14:28;;;;;;;34.08;14.50;;;;;;;;;;4936942;29;20053;-79
2020/12/04 08:16:58;;;;;;;37.10;15.75;;;;;;;;;;4953242;29;20062;-78
2020/12/04 08:19:25;;;;;;;23.35;9.93;;;;;;;;;;4952340;29;20055;-80
2020/12/04 08:22:01;;;;;;;23.25;9.90;;;;;;;;;;4934318;28;20053;-79
2020/12/04 08:24:29;;;;;;;24.90;11.10;;;;;;;;;;4967251;28;20578;-78
2020/12/04 08:27:03;;;;;;;25.30;10.68;;;;;;;;;;4975494;28;20458;-79
2020/12/04 08:29:29;;;;;;;22.05;10.10;;;;;;;;;;4975709;28;20039;-79
2020/12/04 08:32:13;;;;;;;29.98;10.70;;;;;;;;;;4974603;28;20047;-79
2020/12/04 08:34:41;;;;;;;23.83;10.05;;;;;;;;;;4976963;28;20135;-78
2020/12/04 08:37:08;;;;;;;24.70;9.88;;;;;;;;;;4937595;29;20174;-78
2020/12/04 08:39:43;;;;;;;26.33;10.60;;;;;;;;;;4954781;29;20047;-80
2020/12/04 08:42:15;;;;;;;27.58;11.95;;;;;;;;;;4953989;28;20157;-78
2020/12/04 08:45:01;;;;;;;29.67;12.65;;;;;;;;;;4952111;29;20047;-79
2020/12/04 08:47:38;;;;;;;29.92;11.95;;;;;;;;;;4933100;29;20146;-78
2020/12/04 08:50:08;;;;;;;26.05;10.52;;;;;;;;;;4937728;28;20062;-78
2020/12/04 08:52:38;;;;;;;19.98;10.13;;;;;;;;;;4954430;29;20039;-80
2020/12/04 08:55:12;;;;;;;22.15;10.32;;;;;;;;;;4953556;28;20047;-80
2020/12/04 08:57:39;;;;;;;22.30;10.57;;;;;;;;;;4954537;29;20051;-79
2020/12/04 09:00:07;;;;;;;22.35;10.60;;;;;;;;;;4936220;28;20130;-78
2020/12/04 09:02:34;;;;;;;24.33;10.80;;;;;;;;;;4933481;29;20121;-80
2020/12/04 09:05:03;;;;;;;24.83;11.27;;;;;;;;;;4954483;28;20051;-78
2020/12/04 09:07:29;;;;;;;23.40;10.25;;;;;;;;;;4940160;29;20175;-80
2020/12/04 09:09:55;;;;;;;22.92;10.27;;;;;;;;;;4938151;29;20110;-79
2020/12/04 09:12:24;;;;;;;24.25;10.60;;;;;;;;;;4936469;28;20418;-79
2020/12/04 09:14:50;;;;;;;23.42;10.45;;;;;;;;;;4951974;28;20051;-78
2020/12/04 09:17:17;;;;;;;23.52;10.80;;;;;;;;;;4936577;29;20070;-79
2020/12/04 09:19:45;;;;;;;25.50;9.95;;;;;;;;;;4937604;29;20050;-79
2020/12/04 09:22:12;;;;;;;23.73;9.90;;;;;;;;;;4956479;28;20106;-79
2020/12/04 09:24:39;;;;;;;23.92;10.10;;;;;;;;;;4942658;29;20109;-80
2020/12/04 09:27:06;;;;;;;22.35;9.63;;;;;;;;;;4941969;29;20055;-79
2020/12/04 09:29:33;;;;;;;21.13;9.40;;;;;;;;;;4948775;29;20276;-80
2020/12/04 09:32:10;;;;;;;19.42;9.18;;;;;;;;;;4965390;28;20123;-80
2020/12/04 09:34:37;;;;;;;22.02;9.88;;;;;;;;;;4937237;29;20138;-78
2020/12/04 09:37:17;;;;;;;24.92;10.20;;;;;;;;;;4937336;29;20459;-79
2020/12/04 09:39:45;;;;;;;20.75;9.80;;;;;;;;;;4936969;29;20047;-78
2020/12/04 09:42:13;;;;;;;21.17;9.63;;;;;;;;;;4937360;29;20134;-79
2020/12/04 09:44:41;;;;;;;22.65;9.75;;;;;;;;;;4936529;29;20102;-79
2020/12/04 09:47:08;;;;;;;21.98;10.00;;;;;;;;;;4953505;28;20648;-81
2020/12/04 09:49:34;;;;;;;23.08;9.40;;;;;;;;;;4922697;29;20118;-81
2020/12/04 09:52:02;;;;;;;21.35;8.90;;;;;;;;;;4938397;28;20047;-81
2020/12/04 09:54:30;;;;;;;18.90;8.32;;;;;;;;;;4952948;29;20043;-77
2020/12/04 09:56:57;;;;;;;19.63;9.02;;;;;;;;;;4952448;29;20062;-79
2020/12/04 09:59:24;;;;;;;18.98;8.82;;;;;;;;;;4953466;29;20043;-80
2020/12/04 10:01:52;;;;;;;19.17;8.80;;;;;;;;;;4952885;28;20051;-78
2020/12/04 10:04:19;;;;;;;19.60;8.77;;;;;;;;;;4952988;28;20138;-79
2020/12/04 10:06:45;;;;;;;20.35;9.02;;;;;;;;;;4934591;29;20106;-78
2020/12/04 10:09:12;;;;;;;19.75;9.50;;;;;;;;;;4952292;28;20047;-79
2020/12/04 10:11:39;;;;;;;17.23;8.50;;;;;;;;;;4953477;28;20050;-79
2020/12/04 10:14:04;;;;;;;16.92;8.38;;;;;;;;;;4935356;29;20411;-79
2020/12/04 10:16:34;;;;;;;22.90;8.15;;;;;;;;;;4938135;29;20464;-78
2020/12/04 10:19:00;;;;;;;18.00;8.55;;;;;;;;;;4958628;28;20059;-80
2020/12/04 10:21:31;;;;;;;17.50;8.65;;;;;;;;;;4962251;28;20050;-79
2020/12/04 10:23:57;;;;;;;17.02;8.43;;;;;;;;;;4957583;29;20082;-79
2020/12/04 10:26:23;;;;;;;19.75;9.32;;;;;;;;;;4951381;29;20047;-79
2020/12/04 10:28:49;;;;;;;17.77;9.32;;;;;;;;;;4952501;29;20043;-79
2020/12/04 10:31:15;;;;;;;20.02;8.70;;;;;;;;;;4952749;28;20541;-77
2020/12/04 10:33:43;;;;;;;20.17;9.35;;;;;;;;;;4920569;29;20069;-79
2020/12/04 10:36:09;;;;;;;21.17;10.38;;;;;;;;;;4936125;29;20139;-79
2020/12/04 10:38:36;;;;;;;21.25;9.68;;;;;;;;;;4936292;29;20047;-79
2020/12/04 10:41:02;;;;;;;21.15;9.65;;;;;;;;;;4936263;29;20474;-78
2020/12/04 10:43:28;;;;;;;20.25;9.90;;;;;;;;;;4935416;29;20074;-80
2020/12/04 10:45:54;;;;;;;20.25;9.75;;;;;;;;;;4935452;29;20067;-80
2020/12/04 10:48:21;;;;;;;19.88;10.57;;;;;;;;;;4955159;29;20066;-80
2020/12/04 10:50:48;;;;;;;20.75;10.00;;;;;;;;;;4942383;29;20067;-79
2020/12/04 10:53:14;;;;;;;21.23;10.07;;;;;;;;;;4960209;29;20051;-81
2020/12/04 10:55:44;;;;;;;21.00;10.75;;;;;;;;;;4943017;29;20043;-79
2020/12/04 10:58:11;;;;;;;19.98;9.98;;;;;;;;;;4961254;29;20047;-80
2020/12/04 11:00:38;;;;;;;21.63;10.02;;;;;;;;;;4955034;28;20047;-78
2020/12/04 11:05:51;;;;;;;23.27;9.88;;;;;;;;;;4943791;28;20043;-78
2020/12/04 11:08:17;;;;;;;21.20;10.15;;;;;;;;;;4951481;28;20047;-79
2020/12/04 11:10:44;;;;;;;22.05;10.45;;;;;;;;;;4951748;28;20053;-80
2020/12/04 11:13:10;;;;;;;20.48;10.55;;;;;;;;;;4951196;28;20051;-78
2020/12/04 11:15:37;;;;;;;21.10;10.05;;;;;;;;;;4950965;29;20735;-78
2020/12/04 11:18:03;;;;;;;22.88;11.73;;;;;;;;;;4953564;29;20039;-79
2020/12/04 11:20:29;;;;;;;24.17;10.23;;;;;;;;;;4956952;28;20055;-79
2020/12/04 11:22:56;;;;;;;19.77;10.80;;;;;;;;;;4956417;29;20051;-79
2020/12/04 11:25:22;;;;;;;24.42;12.13;;;;;;;;;;4954603;28;20107;-80
2020/12/04 11:27:49;;;;;;;25.65;12.63;;;;;;;;;;4951989;29;20301;-79
2020/12/04 11:30:17;;;;;;;22.27;10.80;;;;;;;;;;4950418;28;20471;-79
2020/12/04 11:32:44;;;;;;;22.33;10.88;;;;;;;;;;4935510;29;20047;-78
2020/12/04 11:35:11;;;;;;;24.48;11.50;;;;;;;;;;4938873;29;20043;-79
2020/12/04 11:37:38;;;;;;;24.65;11.93;;;;;;;;;;4953208;29;20102;-80
2020/12/04 11:40:05;;;;;;;25.05;10.93;;;;;;;;;;4939833;28;20043;-80
2020/12/04 11:42:37;;;;;;;22.63;11.15;;;;;;;;;;4920884;29;20043;-80
2020/12/04 11:45:04;;;;;;;23.35;11.13;;;;;;;;;;4953098;29;20110;-79
2020/12/04 11:47:31;;;;;;;21.95;10.95;;;;;;;;;;4953689;29;20054;-81
2020/12/04 11:49:58;;;;;;;20.45;10.60;;;;;;;;;;4938623;29;20048;-80
2020/12/04 11:52:26;;;;;;;25.08;11.30;;;;;;;;;;4953198;28;20039;-80
2020/12/04 11:54:54;;;;;;;21.05;11.38;;;;;;;;;;4936924;29;20062;-81
2020/12/04 11:57:20;;;;;;;24.25;11.00;;;;;;;;;;4936375;29;20051;-80
2020/12/04 11:59:46;;;;;;;23.58;11.50;;;;;;;;;;4939130;29;20142;-80
2020/12/04 12:02:13;;;;;;;22.75;11.40;;;;;;;;;;4939584;29;20051;-78
2020/12/04 12:04:39;;;;;;;19.50;10.07;;;;;;;;;;4958668;29;20047;-81
2020/12/04 12:07:07;;;;;;;21.85;11.40;;;;;;;;;;4949834;29;20106;-81
2020/12/04 12:09:36;;;;;;;22.60;10.65;;;;;;;;;;4960223;29;20136;-79
2020/12/04 12:12:03;;;;;;;22.58;11.10;;;;;;;;;;4939327;29;20074;-80
2020/12/04 12:14:29;;;;;;;20.20;9.32;;;;;;;;;;4956492;29;20464;-81
2020/12/04 12:16:55;;;;;;;19.58;10.10;;;;;;;;;;4954805;28;20051;-80
2020/12/04 12:19:22;;;;;;;17.83;10.27;;;;;;;;;;4957854;28;20043;-79
2020/12/04 12:21:49;;;;;;;19.02;9.38;;;;;;;;;;4956679;28;20043;-81
2020/12/04 12:24:15;;;;;;;19.85;10.27;;;;;;;;;;4940768;29;20051;-80
2020/12/04 12:26:42;;;;;;;19.88;10.02;;;;;;;;;;4960497;29;20047;-79
2020/12/04 12:29:08;;;;;;;17.75;9.60;;;;;;;;;;4960412;29;20054;-79
2020/12/04 12:31:35;;;;;;;20.13;10.48;;;;;;;;;;4937299;29;20047;-79
2020/12/04 12:34:01;;;;;;;21.63;9.82;;;;;;;;;;4938845;29;20047;-80
2020/12/04 12:36:27;;;;;;;19.80;9.73;;;;;;;;;;4937639;29;20070;-80
2020/12/04 12:38:57;;;;;;;18.83;9.95;;;;;;;;;;4938050;29;20106;-81
2020/12/04 12:41:23;;;;;;;22.95;9.57;;;;;;;;;;4936963;29;20114;-80
2020/12/04 12:43:50;;;;;;;18.27;9.52;;;;;;;;;;4954032;28;20051;-81
2020/12/04 12:46:16;;;;;;;18.67;10.20;;;;;;;;;;4952232;29;20130;-79
2020/12/04 12:48:43;;;;;;;17.33;9.82;;;;;;;;;;4954037;29;20062;-79
2020/12/04 12:51:09;;;;;;;19.15;10.63;;;;;;;;;;4958431;28;20140;-80
2020/12/04 12:53:39;;;;;;;18.60;10.73;;;;;;;;;;4965609;29;20059;-81
2020/12/04 12:56:05;;;;;;;19.45;10.48;;;;;;;;;;4939566;29;20052;-78
2020/12/04 12:58:31;;;;;;;20.90;10.93;;;;;;;;;;4956854;28;20126;-81
2020/12/04 13:00:58;;;;;;;22.17;11.43;;;;;;;;;;4939602;29;20346;-80
2020/12/04 13:03:25;;;;;;;19.30;10.43;;;;;;;;;;4955932;28;20062;-80
2020/12/04 13:05:51;;;;;;;26.42;14.02;;;;;;;;;;4938277;29;20577;-78
2020/12/04 13:08:18;;;;;;;22.40;11.63;;;;;;;;;;4954942;28;20464;-81
2020/12/04 13:10:46;;;;;;;19.63;10.35;;;;;;;;;;4944849;29;20119;-79
2020/12/04 13:13:13;;;;;;;21.48;11.07;;;;;;;;;;4964703;28;20150;-80
2020/12/04 13:15:39;;;;;;;19.52;10.55;;;;;;;;;;4932280;29;20520;-78
2020/12/04 13:18:06;;;;;;;20.42;10.07;;;;;;;;;;4952087;29;20098;-79
2020/12/04 13:20:32;;;;;;;21.23;10.80;;;;;;;;;;4954956;28;20558;-80
2020/12/04 13:23:17;;;;;;;19.13;10.25;;;;;;;;;;4948528;29;20143;-81
2020/12/04 13:25:44;;;;;;;21.98;10.85;;;;;;;;;;4938998;29;20047;-80
2020/12/04 13:28:11;;;;;;;19.90;10.73;;;;;;;;;;4953892;29;20054;-79
2020/12/04 13:30:39;;;;;;;21.27;10.90;;;;;;;;;;4920646;28;20513;-80
2020/12/04 13:33:08;;;;;;;20.63;10.32;;;;;;;;;;4937323;29;20137;-79
2020/12/04 13:35:35;;;;;;;21.65;11.18;;;;;;;;;;4937483;29;20139;-80
2020/12/04 13:38:01;;;;;;;22.73;11.52;;;;;;;;;;4955523;28;20048;-79
2020/12/04 13:40:28;;;;;;;20.90;11.48;;;;;;;;;;4950734;28;20668;-80
2020/12/04 13:42:54;;;;;;;22.17;11.35;;;;;;;;;;4958123;28;20047;-80
2020/12/04 13:45:21;;;;;;;20.25;11.25;;;;;;;;;;4937868;28;20051;-79
2020/12/04 13:47:47;;;;;;;21.98;12.30;;;;;;;;;;4957284;28;20184;-80
2020/12/04 13:50:13;;;;;;;24.65;12.63;;;;;;;;;;4952592;28;20047;-80
2020/12/04 13:52:56;;;;;;;22.05;12.00;;;;;;;;;;5015252;23;20051;-81
2020/12/04 14:07:18;;;;;;;25.83;14.05;;;;;;;;;;4905954;29;20049;-81
2020/12/04 14:10:19;;;;;;;25.15;13.68;;;;;;;;;;4894101;29;20072;-80
2020/12/04 14:17:05;;;;;;;25.08;13.35;;;;;;;;;;4917118;29;20048;-79
2020/12/04 14:20:17;;;;;;;30.80;13.90;;;;;;;;;;4925600;29;20059;-79
2020/12/04 14:23:09;;;;;;;29.45;14.65;;;;;;;;;;4897126;29;20052;-78
2020/12/04 14:29:21;;;;;;;31.15;14.82;;;;;;;;;;4944215;29;20071;-79
2020/12/04 14:39:19;;;;;;;32.65;16.55;;;;;;;;;;4942950;29;20079;-80
2020/12/04 14:45:35;;;;;;;31.38;15.32;;;;;;;;;;4958140;28;20051;-79
2020/12/04 14:48:21;;;;;;;30.00;15.57;;;;;;;;;;4964062;29;20047;-80
2020/12/04 14:51:15;;;;;;;29.05;15.27;;;;;;;;;;4961936;28;20074;-80
2020/12/04 14:54:04;;;;;;;30.20;14.57;;;;;;;;;;4948834;29;20043;-79
2020/12/04 14:57:02;;;;;;;31.25;15.70;;;;;;;;;;4964180;29;20066;-80
2020/12/04 14:59:37;;;;;;;29.75;15.27;;;;;;;;;;4961036;29;20054;-79
2020/12/04 15:02:16;;;;;;;30.40;15.85;;;;;;;;;;4942675;28;20114;-80
2020/12/04 15:05:02;;;;;;;27.50;15.18;;;;;;;;;;4945261;29;20043;-81
2020/12/04 15:07:46;;;;;;;29.55;15.40;;;;;;;;;;4958663;29;20047;-79
2020/12/04 15:10:44;;;;;;;30.20;15.77;;;;;;;;;;4945270;28;20515;-79
2020/12/04 15:13:30;;;;;;;31.90;15.98;;;;;;;;;;4939746;29;20110;-79
2020/12/04 15:16:31;;;;;;;33.00;16.85;;;;;;;;;;4933031;29;20047;-81
2020/12/04 15:19:23;;;;;;;29.95;15.77;;;;;;;;;;4945863;28;20124;-80
2020/12/04 15:22:11;;;;;;;31.42;16.48;;;;;;;;;;4945073;28;20043;-79
2020/12/04 15:25:09;;;;;;;30.85;15.18;;;;;;;;;;4934029;29;20051;-78
2020/12/04 15:28:15;;;;;;;32.47;16.58;;;;;;;;;;4952999;28;20086;-79
2020/12/04 15:31:07;;;;;;;31.45;15.82;;;;;;;;;;4934276;28;20058;-79
2020/12/04 15:34:11;;;;;;;;;;;;;;;;;;;;;
2020/12/04 15:36:53;;;;;;;30.95;15.85;;;;;;;;;;4954736;28;20127;-79
2020/12/04 15:39:47;;;;;;;35.03;17.02;;;;;;;;;;4931357;29;20039;-79
2020/12/04 15:42:29;;;;;;;31.23;16.25;;;;;;;;;;4958777;28;20077;-80
2020/12/04 15:45:30;;;;;;;30.08;16.23;;;;;;;;;;4950995;29;20052;-80
2020/12/04 15:48:26;;;;;;;31.95;16.13;;;;;;;;;;4957106;29;20317;-81
2020/12/04 15:51:09;;;;;;;31.60;16.05;;;;;;;;;;4945266;28;20047;-78
2020/12/04 15:53:52;;;;;;;30.75;15.70;;;;;;;;;;4955475;28;20122;-78
2020/12/04 15:56:37;;;;;;;29.25;15.52;;;;;;;;;;4959169;28;20078;-81
2020/12/04 15:59:23;;;;;;;31.65;14.93;;;;;;;;;;4961001;29;20043;-78